Time;durP1;ratioP1;P1;durP2;ratioP2;P2;SDS_P1;SDS_P2;PMS_P1;PMS_P2;Temp;Humidity;BMP_temperature;BMP_pressure;BME280_temperature;BME280_humidity;BME280_pressure;Samples;Min_cycle;Max_cycle;Signal;HPM_P1;HPM_P2
2021/03/30 00:03:25;;;;;;;109.53;39.80;;;;;;;;;;8293180;28;20052;-74
2021/03/30 00:07:30;;;;;;;111.22;39.03;;;;;;;;;;8293963;28;20471;-74
2021/03/30 00:11:37;;;;;;;67.28;31.55;;;;;;;;;;8293866;28;20371;-74
2021/03/30 00:15:44;;;;;;;127.28;41.45;;;;;;;;;;8290516;28;20471;-74
2021/03/30 00:19:49;;;;;;;60.83;28.90;;;;;;;;;;8290129;28;20367;-74
2021/03/30 00:23:54;;;;;;;94.70;35.33;;;;;;;;;;8291551;28;20491;-74
2021/03/30 00:27:58;;;;;;;138.93;44.45;;;;;;;;;;8292181;28;20375;-74
2021/03/30 00:32:01;;;;;;;70.93;31.15;;;;;;;;;;8290019;28;20487;-75
2021/03/30 00:36:06;;;;;;;50.25;27.50;;;;;;;;;;8289900;28;20471;-74
2021/03/30 00:40:12;;;;;;;66.22;30.58;;;;;;;;;;8290587;28;20371;-74
2021/03/30 00:44:17;;;;;;;153.00;49.42;;;;;;;;;;8274361;28;20071;-74
2021/03/30 00:48:28;;;;;;;60.92;30.92;;;;;;;;;;8290444;28;20103;-74
2021/03/30 00:52:37;;;;;;;159.85;54.97;;;;;;;;;;8289890;28;20383;-74
2021/03/30 00:56:54;;;;;;;;;;;;;;;;;;8289464;28;20048;-74
2021/03/30 01:00:58;;;;;;;133.73;50.88;;;;;;;;;;8274668;28;20318;-75
2021/03/30 01:05:02;;;;;;;121.43;47.78;;;;;;;;;;8311798;28;20398;-75
2021/03/30 01:09:34;;;;;;;51.95;28.77;;;;;;;;;;8322971;28;20370;-74
2021/03/30 01:14:10;;;;;;;92.72;41.47;;;;;;;;;;8323922;28;20469;-75
2021/03/30 01:18:27;;;;;;;53.53;28.75;;;;;;;;;;8323755;28;20481;-75
2021/03/30 01:22:49;;;;;;;80.50;37.28;;;;;;;;;;8322698;28;20071;-75
2021/03/30 01:27:05;;;;;;;69.32;34.08;;;;;;;;;;8323809;28;20352;-74
2021/03/30 01:31:10;;;;;;;47.95;29.20;;;;;;;;;;8323737;28;20386;-75
2021/03/30 01:35:19;;;;;;;60.80;32.58;;;;;;;;;;8321937;28;20545;-74
2021/03/30 01:39:26;;;;;;;51.38;27.58;;;;;;;;;;8323142;28;20363;-74
2021/03/30 01:43:30;;;;;;;47.95;29.42;;;;;;;;;;8330556;28;20074;-74
2021/03/30 01:47:39;;;;;;;53.67;29.05;;;;;;;;;;8328334;28;20373;-75
2021/03/30 01:51:42;;;;;;;50.38;29.35;;;;;;;;;;8311979;28;20475;-75
2021/03/30 01:55:52;;;;;;;58.35;30.98;;;;;;;;;;8329276;28;20048;-75
2021/03/30 01:59:59;;;;;;;53.08;28.70;;;;;;;;;;8329813;28;20071;-75
2021/03/30 02:04:05;;;;;;;50.30;29.73;;;;;;;;;;8328943;28;20406;-74
2021/03/30 02:08:12;;;;;;;55.65;31.52;;;;;;;;;;8329183;28;20055;-74
2021/03/30 02:12:18;;;;;;;57.60;31.73;;;;;;;;;;8328073;28;20370;-74
2021/03/30 02:16:29;;;;;;;50.03;29.75;;;;;;;;;;8328026;28;20489;-75
2021/03/30 02:20:42;;;;;;;53.85;31.83;;;;;;;;;;8329075;28;20366;-75
2021/03/30 02:24:46;;;;;;;56.50;30.55;;;;;;;;;;8328098;28;20492;-74
2021/03/30 02:28:54;;;;;;;59.30;33.25;;;;;;;;;;8327651;28;20040;-74
2021/03/30 02:32:58;;;;;;;75.85;43.17;;;;;;;;;;8327307;28;20439;-74
2021/03/30 02:37:05;;;;;;;64.72;40.22;;;;;;;;;;8326009;28;20044;-74
2021/03/30 02:41:10;;;;;;;78.90;43.88;;;;;;;;;;8328140;28;20374;-75
2021/03/30 02:45:20;;;;;;;51.80;30.67;;;;;;;;;;8326576;28;20386;-74
2021/03/30 02:49:43;;;;;;;60.97;35.28;;;;;;;;;;8324784;28;20493;-74
2021/03/30 02:53:48;;;;;;;61.85;34.13;;;;;;;;;;8318316;28;20354;-75
2021/03/30 02:57:52;;;;;;;65.82;34.65;;;;;;;;;;8318738;28;20461;-75
2021/03/30 03:01:58;;;;;;;62.17;36.55;;;;;;;;;;8321230;28;20048;-74
2021/03/30 03:06:03;;;;;;;45.67;28.60;;;;;;;;;;8319484;28;20428;-75
2021/03/30 03:10:10;;;;;;;62.78;29.88;;;;;;;;;;8321709;28;20355;-75
2021/03/30 03:14:15;;;;;;;54.45;28.98;;;;;;;;;;8302948;28;20429;-75
2021/03/30 03:18:20;;;;;;;47.78;27.95;;;;;;;;;;8319660;28;20485;-74
2021/03/30 03:22:26;;;;;;;48.65;26.42;;;;;;;;;;8318708;28;20481;-75
2021/03/30 03:26:32;;;;;;;46.97;27.83;;;;;;;;;;8320778;28;20406;-74
2021/03/30 03:30:40;;;;;;;46.53;27.75;;;;;;;;;;8318526;28;20470;-75
2021/03/30 03:35:00;;;;;;;47.17;27.00;;;;;;;;;;8319573;28;20066;-75
2021/03/30 03:39:07;;;;;;;48.97;26.60;;;;;;;;;;8320185;28;20385;-75
2021/03/30 03:43:12;;;;;;;137.50;49.85;;;;;;;;;;8318437;28;20382;-75
2021/03/30 03:47:22;;;;;;;89.38;35.80;;;;;;;;;;8319990;28;20382;-75
2021/03/30 03:51:33;;;;;;;84.50;34.10;;;;;;;;;;8318733;28;20103;-75
2021/03/30 03:55:46;;;;;;;71.95;31.13;;;;;;;;;;8318318;28;20378;-75
2021/03/30 03:59:51;;;;;;;61.33;28.88;;;;;;;;;;8317768;28;20348;-74
2021/03/30 04:04:00;;;;;;;47.08;26.38;;;;;;;;;;8319298;28;20489;-74
2021/03/30 04:08:16;;;;;;;42.00;26.52;;;;;;;;;;8323584;28;20382;-74
2021/03/30 04:12:29;;;;;;;47.78;26.08;;;;;;;;;;8324622;28;20347;-74
2021/03/30 04:16:35;;;;;;;46.03;25.77;;;;;;;;;;8323869;28;20370;-74
2021/03/30 04:20:40;;;;;;;45.15;25.90;;;;;;;;;;8324626;28;20421;-75
2021/03/30 04:24:45;;;;;;;61.83;28.48;;;;;;;;;;8322632;28;20337;-76
2021/03/30 04:28:49;;;;;;;72.40;33.63;;;;;;;;;;8324751;28;20443;-74
2021/03/30 04:32:54;;;;;;;60.17;30.85;;;;;;;;;;8326050;28;20044;-74
2021/03/30 04:36:58;;;;;;;54.30;28.98;;;;;;;;;;8323389;28;20047;-75
2021/03/30 04:41:06;;;;;;;63.38;31.27;;;;;;;;;;8323277;28;20040;-74
2021/03/30 04:45:11;;;;;;;56.70;30.00;;;;;;;;;;8322495;28;20386;-74
2021/03/30 04:49:15;;;;;;;58.38;29.83;;;;;;;;;;8323577;28;20451;-74
2021/03/30 04:53:19;;;;;;;48.63;26.23;;;;;;;;;;8324398;28;20473;-74
2021/03/30 04:57:26;;;;;;;51.78;25.73;;;;;;;;;;8323564;28;20470;-74
2021/03/30 05:01:30;;;;;;;44.17;24.45;;;;;;;;;;8323292;28;20478;-74
2021/03/30 05:05:34;;;;;;;43.20;23.20;;;;;;;;;;8324059;28;20470;-74
2021/03/30 05:09:39;;;;;;;42.90;23.15;;;;;;;;;;8323636;28;20473;-75
2021/03/30 05:13:46;;;;;;;43.50;23.23;;;;;;;;;;8322862;28;20381;-74
2021/03/30 05:17:49;;;;;;;47.78;25.55;;;;;;;;;;8324215;28;20378;-74
2021/03/30 05:21:54;;;;;;;44.70;22.55;;;;;;;;;;8322936;28;20510;-74
2021/03/30 05:25:58;;;;;;;44.90;25.73;;;;;;;;;;8325534;28;20378;-74
2021/03/30 05:30:06;;;;;;;41.17;23.23;;;;;;;;;;8323165;28;20386;-75
2021/03/30 05:34:10;;;;;;;46.30;25.42;;;;;;;;;;8322528;28;20378;-74
2021/03/30 05:38:14;;;;;;;44.22;23.15;;;;;;;;;;8322869;28;20083;-74
2021/03/30 05:42:20;;;;;;;49.30;24.98;;;;;;;;;;8323361;28;20439;-74
2021/03/30 05:46:24;;;;;;;40.40;22.63;;;;;;;;;;8322654;28;20355;-74
2021/03/30 05:50:33;;;;;;;39.45;22.70;;;;;;;;;;8322283;28;20383;-74
2021/03/30 05:54:41;;;;;;;45.72;22.75;;;;;;;;;;8323730;28;20477;-74
2021/03/30 05:58:47;;;;;;;37.75;22.83;;;;;;;;;;8322732;28;20585;-74
2021/03/30 06:02:58;;;;;;;55.97;32.90;;;;;;;;;;8322614;28;20474;-74
2021/03/30 06:07:03;;;;;;;49.42;27.17;;;;;;;;;;8304661;28;20481;-74
2021/03/30 06:11:10;;;;;;;38.13;22.85;;;;;;;;;;8321923;28;20382;-74
2021/03/30 06:15:15;;;;;;;37.40;21.42;;;;;;;;;;8321961;28;20455;-74
2021/03/30 06:19:20;;;;;;;40.03;21.50;;;;;;;;;;8321568;28;20177;-74
2021/03/30 06:23:29;;;;;;;37.22;22.52;;;;;;;;;;8322295;28;20409;-74
2021/03/30 06:27:34;;;;;;;42.90;24.17;;;;;;;;;;8325146;28;20044;-74
2021/03/30 06:31:37;;;;;;;34.22;21.38;;;;;;;;;;8329181;28;20450;-74
2021/03/30 06:35:41;;;;;;;34.70;19.42;;;;;;;;;;8328272;28;20478;-74
2021/03/30 06:39:46;;;;;;;32.35;18.33;;;;;;;;;;8327471;28;20489;-74
2021/03/30 06:48:26;;;;;;;33.63;18.17;;;;;;;;;;8326874;28;20463;-74
2021/03/30 06:52:37;;;;;;;30.58;17.52;;;;;;;;;;8327120;28;20462;-74
2021/03/30 06:56:58;;;;;;;28.13;17.23;;;;;;;;;;8328190;28;20451;-74
2021/03/30 07:01:02;;;;;;;32.03;18.45;;;;;;;;;;8327617;28;20467;-74
2021/03/30 07:05:20;;;;;;;31.80;17.90;;;;;;;;;;8328107;28;20463;-73
2021/03/30 07:09:26;;;;;;;29.48;17.35;;;;;;;;;;8329379;28;20370;-75
2021/03/30 07:13:30;;;;;;;30.13;17.80;;;;;;;;;;8327053;28;20095;-73
2021/03/30 07:17:42;;;;;;;33.67;19.33;;;;;;;;;;8325030;28;20463;-74
2021/03/30 07:22:09;;;;;;;31.42;18.20;;;;;;;;;;8326077;28;20364;-74
2021/03/30 07:26:32;;;;;;;32.40;18.13;;;;;;;;;;8326640;28;20598;-75
2021/03/30 07:30:42;;;;;;;32.97;18.80;;;;;;;;;;8313215;28;20067;-73
2021/03/30 07:35:06;;;;;;;34.45;19.75;;;;;;;;;;8326181;28;20398;-75
2021/03/30 07:39:10;;;;;;;37.47;21.10;;;;;;;;;;8324638;28;20074;-74
2021/03/30 07:43:25;;;;;;;33.30;18.88;;;;;;;;;;8326015;28;20444;-74
2021/03/30 07:47:31;;;;;;;37.38;20.70;;;;;;;;;;8323468;28;20365;-74
2021/03/30 07:51:43;;;;;;;43.70;23.90;;;;;;;;;;8325063;28;20482;-74
2021/03/30 07:55:47;;;;;;;49.10;23.40;;;;;;;;;;8326647;28;20469;-76
2021/03/30 07:59:53;;;;;;;41.20;24.80;;;;;;;;;;8325392;28;20455;-74
2021/03/30 08:04:00;;;;;;;37.50;21.27;;;;;;;;;;8326771;28;20370;-75
2021/03/30 08:08:25;;;;;;;42.30;22.65;;;;;;;;;;8326788;28;20048;-75
2021/03/30 08:12:31;;;;;;;39.35;20.98;;;;;;;;;;8323233;28;20383;-74
2021/03/30 08:16:39;;;;;;;39.08;20.95;;;;;;;;;;8327251;28;20056;-74
2021/03/30 08:20:53;;;;;;;42.97;21.45;;;;;;;;;;8325430;28;20056;-73
2021/03/30 08:24:58;;;;;;;45.20;22.40;;;;;;;;;;8324594;28;20336;-74
2021/03/30 08:29:36;;;;;;;47.30;21.02;;;;;;;;;;8292307;28;20493;-74
2021/03/30 08:33:42;;;;;;;41.33;19.67;;;;;;;;;;8322999;28;20044;-73
2021/03/30 08:37:47;;;;;;;39.70;21.38;;;;;;;;;;8322976;28;20362;-74
2021/03/30 08:42:04;;;;;;;38.60;20.42;;;;;;;;;;8323892;28;20378;-74
2021/03/30 08:46:13;;;;;;;45.73;20.33;;;;;;;;;;8308505;28;20374;-75
2021/03/30 08:50:25;;;;;;;38.60;20.98;;;;;;;;;;8322400;28;20787;-73
2021/03/30 08:54:34;;;;;;;41.00;18.45;;;;;;;;;;8324333;28;20370;-73
2021/03/30 08:58:48;;;;;;;34.65;19.88;;;;;;;;;;8324516;28;20410;-73
2021/03/30 09:03:29;;;;;;;37.20;19.48;;;;;;;;;;8325829;28;20374;-73
2021/03/30 09:07:48;;;;;;;30.63;19.45;;;;;;;;;;8324367;28;20390;-73
2021/03/30 09:11:54;;;;;;;41.20;18.98;;;;;;;;;;8323685;28;20385;-74
2021/03/30 09:16:09;;;;;;;41.47;19.90;;;;;;;;;;8305857;28;20137;-73
2021/03/30 09:20:21;;;;;;;36.95;19.15;;;;;;;;;;8326243;28;20493;-73
2021/03/30 09:24:46;;;;;;;37.92;19.33;;;;;;;;;;8322391;28;20371;-73
2021/03/30 09:28:58;;;;;;;49.45;19.98;;;;;;;;;;8326563;28;20470;-74
2021/03/30 09:33:04;;;;;;;35.88;20.08;;;;;;;;;;8324195;28;20377;-73
2021/03/30 09:37:09;;;;;;;40.88;20.05;;;;;;;;;;8325738;28;20106;-73
2021/03/30 09:41:40;;;;;;;33.60;17.77;;;;;;;;;;8324860;28;20478;-73
2021/03/30 09:45:49;;;;;;;33.95;17.10;;;;;;;;;;8321721;28;20485;-72
2021/03/30 09:49:53;;;;;;;38.28;16.83;;;;;;;;;;8323699;28;20467;-73
2021/03/30 09:53:58;;;;;;;32.83;16.63;;;;;;;;;;8322675;28;20470;-72
2021/03/30 09:58:18;;;;;;;33.55;16.20;;;;;;;;;;8323803;28;20126;-72
2021/03/30 10:02:33;;;;;;;29.98;13.80;;;;;;;;;;8326509;28;20443;-73
2021/03/30 10:06:38;;;;;;;27.60;13.63;;;;;;;;;;8330351;28;20472;-73
2021/03/30 10:10:55;;;;;;;25.55;12.75;;;;;;;;;;8311849;28;20455;-73
2021/03/30 10:15:01;;;;;;;42.17;15.95;;;;;;;;;;8327505;28;20342;-72
2021/03/30 10:19:06;;;;;;;27.13;13.73;;;;;;;;;;8327448;28;20386;-72
2021/03/30 10:23:22;;;;;;;27.42;14.07;;;;;;;;;;8326687;28;20467;-74
2021/03/30 10:27:25;;;;;;;29.88;15.63;;;;;;;;;;8328776;28;20580;-72
2021/03/30 10:31:41;;;;;;;28.25;14.57;;;;;;;;;;8327605;28;20422;-73
2021/03/30 10:35:46;;;;;;;26.63;13.52;;;;;;;;;;8327501;28;20578;-73
2021/03/30 10:40:04;;;;;;;31.98;14.38;;;;;;;;;;8328413;28;20373;-73
2021/03/30 10:44:09;;;;;;;26.63;13.50;;;;;;;;;;8328773;28;20466;-72
2021/03/30 10:48:14;;;;;;;24.95;13.00;;;;;;;;;;8326052;28;20483;-72
2021/03/30 10:52:21;;;;;;;28.70;13.98;;;;;;;;;;8329594;28;20263;-72
2021/03/30 10:56:24;;;;;;;22.00;11.98;;;;;;;;;;8328228;28;20052;-72
2021/03/30 11:00:29;;;;;;;22.48;11.55;;;;;;;;;;8325858;28;20047;-72
2021/03/30 11:04:39;;;;;;;23.88;12.20;;;;;;;;;;8328235;28;20455;-72
2021/03/30 11:08:43;;;;;;;26.55;11.82;;;;;;;;;;8329752;28;20074;-72
2021/03/30 11:12:47;;;;;;;21.27;9.13;;;;;;;;;;8327702;28;20051;-72
2021/03/30 11:16:52;;;;;;;19.15;8.45;;;;;;;;;;8325848;28;20102;-72
2021/03/30 11:20:57;;;;;;;21.33;9.55;;;;;;;;;;8327415;28;20390;-72
2021/03/30 11:25:03;;;;;;;15.90;8.30;;;;;;;;;;8326419;28;20372;-72
2021/03/30 11:29:11;;;;;;;19.45;8.80;;;;;;;;;;8325612;28;20373;-72
2021/03/30 11:33:18;;;;;;;18.20;9.10;;;;;;;;;;8326432;28;20454;-72
2021/03/30 11:37:49;;;;;;;17.50;9.07;;;;;;;;;;8327506;28;20119;-72
2021/03/30 11:41:54;;;;;;;17.50;8.00;;;;;;;;;;8329351;28;20435;-72
2021/03/30 11:45:59;;;;;;;20.00;9.13;;;;;;;;;;8327030;28;20492;-73
2021/03/30 11:50:06;;;;;;;20.45;9.77;;;;;;;;;;8328260;28;20418;-72
2021/03/30 11:54:11;;;;;;;14.70;8.63;;;;;;;;;;8327633;28;20435;-72
2021/03/30 11:58:15;;;;;;;14.35;7.57;;;;;;;;;;8326873;28;20490;-72
2021/03/30 12:02:19;;;;;;;10.80;5.90;;;;;;;;;;8327480;28;20415;-72
2021/03/30 12:06:24;;;;;;;14.52;7.05;;;;;;;;;;8326065;28;20098;-71
2021/03/30 12:10:28;;;;;;;15.90;7.35;;;;;;;;;;8328375;28;20355;-72
2021/03/30 12:14:33;;;;;;;11.85;6.60;;;;;;;;;;8307202;28;20377;-72
2021/03/30 12:18:37;;;;;;;12.23;6.20;;;;;;;;;;8322379;28;20056;-72
2021/03/30 12:22:42;;;;;;;10.32;6.63;;;;;;;;;;8324571;28;20406;-72
2021/03/30 12:26:46;;;;;;;17.20;6.93;;;;;;;;;;8321547;28;20378;-72
2021/03/30 12:30:52;;;;;;;12.80;6.45;;;;;;;;;;8324375;28;20465;-72
2021/03/30 12:35:00;;;;;;;29.30;16.75;;;;;;;;;;8322899;28;20044;-72
2021/03/30 12:39:04;;;;;;;13.90;7.45;;;;;;;;;;8322862;28;20486;-72
2021/03/30 12:43:08;;;;;;;17.67;7.65;;;;;;;;;;8326001;28;20600;-71
2021/03/30 12:47:12;;;;;;;19.40;7.85;;;;;;;;;;8323406;28;20443;-70
2021/03/30 12:51:17;;;;;;;14.20;6.90;;;;;;;;;;8323619;28;20387;-71
2021/03/30 12:55:22;;;;;;;15.55;6.97;;;;;;;;;;8323754;28;20492;-71
2021/03/30 12:59:26;;;;;;;16.90;7.88;;;;;;;;;;8323417;28;20382;-72
2021/03/30 13:03:31;;;;;;;16.85;7.65;;;;;;;;;;8322905;28;20474;-71
2021/03/30 13:07:35;;;;;;;27.90;13.20;;;;;;;;;;8324072;28;20497;-70
2021/03/30 13:11:38;;;;;;;13.30;7.35;;;;;;;;;;8323734;28;20051;-71
2021/03/30 13:15:44;;;;;;;13.63;7.43;;;;;;;;;;8324137;28;20070;-70
2021/03/30 13:19:48;;;;;;;12.48;6.05;;;;;;;;;;8324229;28;20070;-70
2021/03/30 13:23:55;;;;;;;13.13;5.90;;;;;;;;;;8305445;28;20338;-70
2021/03/30 13:28:01;;;;;;;16.23;6.35;;;;;;;;;;8324060;28;20473;-70
2021/03/30 13:32:11;;;;;;;10.85;5.78;;;;;;;;;;8323308;28;20619;-71
2021/03/30 13:36:15;;;;;;;15.60;7.53;;;;;;;;;;8322675;28;20371;-71
2021/03/30 13:40:19;;;;;;;14.43;6.38;;;;;;;;;;8321186;28;20070;-70
2021/03/30 13:44:27;;;;;;;13.38;5.22;;;;;;;;;;8323973;28;20410;-70
2021/03/30 13:48:32;;;;;;;20.70;6.93;;;;;;;;;;8320554;28;20467;-71
2021/03/30 13:52:37;;;;;;;14.32;6.57;;;;;;;;;;8323675;28;20344;-71
2021/03/30 13:56:42;;;;;;;14.30;5.55;;;;;;;;;;8322593;28;20078;-71
2021/03/30 14:00:47;;;;;;;15.52;5.78;;;;;;;;;;8322591;28;20349;-70
2021/03/30 14:04:51;;;;;;;16.30;7.03;;;;;;;;;;8323612;28;20070;-70
2021/03/30 14:08:55;;;;;;;15.13;5.35;;;;;;;;;;8322251;28;20052;-70
2021/03/30 14:13:05;;;;;;;10.27;6.63;;;;;;;;;;8320754;28;20478;-70
2021/03/30 14:17:11;;;;;;;8.88;5.22;;;;;;;;;;8323196;28;20360;-70
2021/03/30 14:21:20;;;;;;;12.38;5.15;;;;;;;;;;8290732;28;20462;-71
2021/03/30 14:25:41;;;;;;;11.75;6.15;;;;;;;;;;8322279;28;20075;-70
2021/03/30 14:29:50;;;;;;;14.93;4.95;;;;;;;;;;8304809;28;20438;-71
2021/03/30 14:33:55;;;;;;;11.35;5.55;;;;;;;;;;8322649;28;20623;-70
2021/03/30 14:37:59;;;;;;;26.80;9.57;;;;;;;;;;8320551;28;20347;-70
2021/03/30 14:42:06;;;;;;;24.35;11.82;;;;;;;;;;8320235;28;20485;-70
2021/03/30 14:55:37;;;;;;;18.42;7.38;;;;;;;;;;8327329;28;20048;-70
2021/03/30 14:59:51;;;;;;;12.15;6.35;;;;;;;;;;8323023;28;20044;-71
2021/03/30 15:04:06;;;;;;;28.55;13.55;;;;;;;;;;8325569;28;20324;-71
2021/03/30 15:08:10;;;;;;;9.77;5.15;;;;;;;;;;8325743;28;20066;-71
2021/03/30 15:12:15;;;;;;;13.93;5.63;;;;;;;;;;8326867;28;20339;-71
2021/03/30 15:16:20;;;;;;;9.05;4.20;;;;;;;;;;8326451;28;20406;-71
2021/03/30 15:20:26;;;;;;;14.13;4.88;;;;;;;;;;8326975;28;20478;-70
2021/03/30 15:24:31;;;;;;;10.88;5.10;;;;;;;;;;8326553;28;20070;-70
2021/03/30 15:28:35;;;;;;;11.15;5.10;;;;;;;;;;8326550;28;20067;-72
2021/03/30 15:32:40;;;;;;;9.80;4.85;;;;;;;;;;8328553;28;20332;-70
2021/03/30 15:36:44;;;;;;;15.40;5.57;;;;;;;;;;8325354;28;20401;-71
2021/03/30 15:40:49;;;;;;;13.63;5.72;;;;;;;;;;8326327;28;20451;-71
2021/03/30 15:45:09;;;;;;;13.50;5.57;;;;;;;;;;8326384;28;20378;-70
2021/03/30 15:49:14;;;;;;;12.65;6.75;;;;;;;;;;8326010;28;20411;-71
2021/03/30 15:53:23;;;;;;;14.23;6.85;;;;;;;;;;8325923;28;20174;-71
2021/03/30 15:57:29;;;;;;;20.95;7.97;;;;;;;;;;8326091;28;20351;-71
2021/03/30 16:01:35;;;;;;;15.80;6.70;;;;;;;;;;8323951;28;20467;-71
2021/03/30 16:05:39;;;;;;;14.98;7.68;;;;;;;;;;8327244;28;20413;-71
2021/03/30 16:09:45;;;;;;;19.38;8.65;;;;;;;;;;8324855;28;20447;-72
2021/03/30 16:13:50;;;;;;;13.00;5.32;;;;;;;;;;8325693;28;20500;-71
2021/03/30 16:17:54;;;;;;;13.93;5.43;;;;;;;;;;8325101;28;20339;-70
2021/03/30 16:22:00;;;;;;;24.75;9.93;;;;;;;;;;8322818;28;20409;-70
2021/03/30 16:26:05;;;;;;;23.15;10.00;;;;;;;;;;8324612;28;20367;-70
2021/03/30 16:30:10;;;;;;;16.90;6.55;;;;;;;;;;8325973;28;20447;-70
2021/03/30 16:34:14;;;;;;;13.10;6.05;;;;;;;;;;8323619;28;20391;-70
2021/03/30 16:38:20;;;;;;;21.95;8.35;;;;;;;;;;8324272;28;20070;-70
2021/03/30 16:42:25;;;;;;;11.38;5.68;;;;;;;;;;8324955;28;20476;-70
2021/03/30 16:46:30;;;;;;;13.07;5.82;;;;;;;;;;8323996;28;20424;-70
2021/03/30 16:50:36;;;;;;;7.70;5.22;;;;;;;;;;8324312;28;20485;-71
2021/03/30 16:54:43;;;;;;;10.45;5.75;;;;;;;;;;8306926;28;20059;-70
2021/03/30 16:58:48;;;;;;;24.73;12.32;;;;;;;;;;8322516;28;20374;-71
2021/03/30 17:02:51;;;;;;;38.85;18.75;;;;;;;;;;8322323;28;20467;-70
2021/03/30 17:06:56;;;;;;;30.75;16.38;;;;;;;;;;8322258;28;20044;-71
2021/03/30 17:11:01;;;;;;;42.88;18.35;;;;;;;;;;8326476;28;20498;-71
2021/03/30 17:15:06;;;;;;;55.38;20.38;;;;;;;;;;8323140;28;20340;-70
2021/03/30 17:19:11;;;;;;;76.53;23.13;;;;;;;;;;8321277;28;20497;-71
2021/03/30 17:23:16;;;;;;;90.05;28.27;;;;;;;;;;8322644;28;20398;-71
2021/03/30 17:27:22;;;;;;;73.90;24.50;;;;;;;;;;8323631;28;20576;-70
2021/03/30 17:31:26;;;;;;;77.73;21.03;;;;;;;;;;8322752;28;20479;-71
2021/03/30 17:35:31;;;;;;;77.43;21.70;;;;;;;;;;8321360;28;20493;-71
2021/03/30 17:39:37;;;;;;;58.42;20.83;;;;;;;;;;8321839;28;20355;-70
2021/03/30 17:43:42;;;;;;;59.15;16.15;;;;;;;;;;8321472;28;20471;-70
2021/03/30 17:47:48;;;;;;;55.15;21.20;;;;;;;;;;8322882;28;20467;-71
2021/03/30 17:51:53;;;;;;;44.72;17.05;;;;;;;;;;8322788;28;20479;-70
2021/03/30 17:55:59;;;;;;;52.78;18.75;;;;;;;;;;8323031;28;20044;-71
2021/03/30 18:00:10;;;;;;;35.50;10.50;;;;;;;;;;8323640;28;20447;-70
2021/03/30 18:04:15;;;;;;;;;;;;;;;;;;8322618;28;20379;-70
2021/03/30 18:08:23;;;;;;;27.65;8.13;;;;;;;;;;8322491;28;19942;-70
2021/03/30 18:12:30;;;;;;;23.27;8.10;;;;;;;;;;8323929;28;20504;-70
2021/03/30 18:16:38;;;;;;;22.98;7.70;;;;;;;;;;8325326;28;20484;-71
2021/03/30 18:20:43;;;;;;;23.33;8.38;;;;;;;;;;8324045;28;20354;-71
2021/03/30 18:24:50;;;;;;;19.23;7.03;;;;;;;;;;8327330;28;20481;-70
2021/03/30 18:28:55;;;;;;;18.67;7.55;;;;;;;;;;8328812;28;20491;-70
2021/03/30 18:32:59;;;;;;;21.30;7.03;;;;;;;;;;8329461;28;20584;-70
2021/03/30 18:37:06;;;;;;;16.40;6.82;;;;;;;;;;8329831;28;20060;-71
2021/03/30 18:41:13;;;;;;;14.63;6.28;;;;;;;;;;8312013;28;20052;-70
2021/03/30 18:45:21;;;;;;;17.70;7.38;;;;;;;;;;8329089;28;20048;-70
2021/03/30 18:49:26;;;;;;;14.98;6.90;;;;;;;;;;8311217;28;20503;-70
2021/03/30 18:53:30;;;;;;;15.48;8.10;;;;;;;;;;8324194;28;20360;-70
2021/03/30 18:57:43;;;;;;;17.17;7.38;;;;;;;;;;8326046;28;20052;-71
2021/03/30 19:01:47;;;;;;;21.65;7.47;;;;;;;;;;8327488;28;20430;-70
2021/03/30 19:05:54;;;;;;;21.08;9.48;;;;;;;;;;8328034;28;20367;-70
2021/03/30 19:09:58;;;;;;;20.08;10.18;;;;;;;;;;8326715;28;20401;-71
2021/03/30 19:14:06;;;;;;;27.88;13.43;;;;;;;;;;8327608;28;20517;-70
2021/03/30 19:18:11;;;;;;;31.65;16.30;;;;;;;;;;8327557;28;20666;-70
2021/03/30 19:22:30;;;;;;;22.77;12.40;;;;;;;;;;8325966;28;20685;-70
2021/03/30 19:26:36;;;;;;;29.55;12.40;;;;;;;;;;8326837;28;20445;-70
2021/03/30 19:30:46;;;;;;;29.65;12.95;;;;;;;;;;8325894;28;20451;-70
2021/03/30 19:34:54;;;;;;;33.90;14.27;;;;;;;;;;8325532;28;20143;-70
2021/03/30 19:38:58;;;;;;;;;;;;;;;;;;8326800;28;20082;-70
2021/03/30 19:43:04;;;;;;;57.35;22.70;;;;;;;;;;8326625;28;20513;-69
2021/03/30 19:47:08;;;;;;;56.60;23.25;;;;;;;;;;8308640;28;20351;-72
2021/03/30 19:51:16;;;;;;;58.67;23.13;;;;;;;;;;8325867;28;20397;-70
2021/03/30 19:55:31;;;;;;;54.83;21.52;;;;;;;;;;8326015;28;20527;-70
2021/03/30 19:59:35;;;;;;;57.75;23.83;;;;;;;;;;8328656;28;20332;-70
2021/03/30 20:03:40;;;;;;;55.45;22.60;;;;;;;;;;8322932;28;20378;-70
2021/03/30 20:07:46;;;;;;;52.20;20.17;;;;;;;;;;8325349;28;20363;-71
2021/03/30 20:11:51;;;;;;;76.28;27.63;;;;;;;;;;8307726;28;20474;-71
2021/03/30 20:15:56;;;;;;;80.15;31.02;;;;;;;;;;8325250;28;20381;-70
2021/03/30 20:20:00;;;;;;;88.10;33.95;;;;;;;;;;8325562;28;20048;-71
2021/03/30 20:24:08;;;;;;;106.00;39.65;;;;;;;;;;8325104;28;20583;-70
2021/03/30 20:28:12;;;;;;;84.90;32.63;;;;;;;;;;8325168;28;20366;-71
2021/03/30 20:32:16;;;;;;;76.85;31.55;;;;;;;;;;8322747;28;20470;-72
2021/03/30 20:36:23;;;;;;;88.93;35.88;;;;;;;;;;8324584;28;20462;-71
2021/03/30 20:40:28;;;;;;;84.63;32.03;;;;;;;;;;8324716;28;20052;-71
2021/03/30 20:44:35;;;;;;;81.88;33.58;;;;;;;;;;8323755;28;20459;-70
2021/03/30 20:48:40;;;;;;;86.90;37.03;;;;;;;;;;8325201;28;20504;-71
2021/03/30 20:52:45;;;;;;;81.93;36.72;;;;;;;;;;8324376;28;20479;-71
2021/03/30 20:56:52;;;;;;;79.90;36.72;;;;;;;;;;8323506;28;20466;-71
2021/03/30 21:00:56;;;;;;;93.53;37.47;;;;;;;;;;8326667;28;20044;-71
2021/03/30 21:05:01;;;;;;;116.25;41.35;;;;;;;;;;8324433;28;20482;-71
2021/03/30 21:09:07;;;;;;;123.07;43.53;;;;;;;;;;8324254;28;20044;-71
2021/03/30 21:13:12;;;;;;;73.90;33.55;;;;;;;;;;8323646;28;20489;-70
2021/03/30 21:17:16;;;;;;;72.07;34.35;;;;;;;;;;8323670;28;20455;-71
2021/03/30 21:21:23;;;;;;;66.93;33.95;;;;;;;;;;8324899;28;20359;-71
2021/03/30 21:25:27;;;;;;;239.43;68.15;;;;;;;;;;8324453;28;20477;-71
2021/03/30 21:29:31;;;;;;;196.82;60.40;;;;;;;;;;8323932;28;20052;-71
2021/03/30 21:33:36;;;;;;;140.73;52.70;;;;;;;;;;8322745;28;20416;-72
2021/03/30 21:37:40;;;;;;;63.90;31.88;;;;;;;;;;8321484;28;20370;-71
2021/03/30 21:41:43;;;;;;;58.88;30.48;;;;;;;;;;8324917;28;20470;-71
2021/03/30 21:45:51;;;;;;;65.55;29.02;;;;;;;;;;8323848;28;20347;-70
2021/03/30 21:49:56;;;;;;;47.03;24.52;;;;;;;;;;8323377;28;20391;-70
2021/03/30 21:54:02;;;;;;;51.92;26.02;;;;;;;;;;8323728;28;20470;-71
2021/03/30 21:58:06;;;;;;;43.60;23.13;;;;;;;;;;8325181;28;20074;-71
2021/03/30 22:02:11;;;;;;;49.00;23.98;;;;;;;;;;8331003;28;20470;-70
2021/03/30 22:06:15;;;;;;;38.05;20.75;;;;;;;;;;8330349;28;20097;-71
2021/03/30 22:10:47;;;;;;;54.05;24.83;;;;;;;;;;8331203;28;20478;-70
2021/03/30 22:14:52;;;;;;;39.15;21.67;;;;;;;;;;8329760;28;20470;-70
2021/03/30 22:18:55;;;;;;;42.90;22.85;;;;;;;;;;8329196;28;20375;-70
2021/03/30 22:23:00;;;;;;;47.88;25.08;;;;;;;;;;8330022;28;20500;-70
2021/03/30 22:27:06;;;;;;;44.08;22.77;;;;;;;;;;8328510;28;20382;-71
2021/03/30 22:31:11;;;;;;;47.20;24.73;;;;;;;;;;8311292;28;20393;-71
2021/03/30 22:35:16;;;;;;;54.13;24.98;;;;;;;;;;8328799;28;20371;-71
2021/03/30 22:39:21;;;;;;;54.47;25.90;;;;;;;;;;8327461;28;20370;-70
2021/03/30 22:43:27;;;;;;;68.80;30.55;;;;;;;;;;8329571;28;20464;-70
2021/03/30 22:47:33;;;;;;;68.70;28.17;;;;;;;;;;8327453;28;20036;-70
2021/03/30 22:51:38;;;;;;;93.55;36.33;;;;;;;;;;8328419;28;20489;-70
2021/03/30 22:55:41;;;;;;;82.57;34.72;;;;;;;;;;8327771;28;20051;-71
2021/03/30 22:59:46;;;;;;;67.88;31.95;;;;;;;;;;8330235;28;20066;-71
2021/03/30 23:03:49;;;;;;;73.18;29.80;;;;;;;;;;8329815;28;20493;-72
2021/03/30 23:07:54;;;;;;;59.38;28.80;;;;;;;;;;8327508;28;20404;-71
2021/03/30 23:11:58;;;;;;;58.60;26.00;;;;;;;;;;8327728;28;20392;-70
2021/03/30 23:16:09;;;;;;;46.78;25.10;;;;;;;;;;8327906;28;20459;-71
2021/03/30 23:20:17;;;;;;;47.47;25.00;;;;;;;;;;8326832;28;20378;-70
2021/03/30 23:24:22;;;;;;;44.17;25.67;;;;;;;;;;8327340;28;20379;-70
2021/03/30 23:28:26;;;;;;;44.85;25.30;;;;;;;;;;8329016;28;20473;-70
2021/03/30 23:32:30;;;;;;;52.15;25.35;;;;;;;;;;8324841;28;20047;-70
2021/03/30 23:36:35;;;;;;;43.17;23.30;;;;;;;;;;8325638;28;20067;-71
2021/03/30 23:40:40;;;;;;;48.78;23.70;;;;;;;;;;8328029;28;20378;-70
2021/03/30 23:44:45;;;;;;;45.75;23.63;;;;;;;;;;8309676;28;20443;-71
2021/03/30 23:48:50;;;;;;;42.63;23.17;;;;;;;;;;8325810;28;20489;-70
2021/03/30 23:52:55;;;;;;;39.33;22.60;;;;;;;;;;8324339;28;20485;-71
2021/03/30 23:56:59;;;;;;;43.00;21.02;;;;;;;;;;8326185;28;20066;-71
